Time;durP1;ratioP1;P1;durP2;ratioP2;P2;SDS_P1;SDS_P2;PMS_P1;PMS_P2;Temp;Humidity;BMP_temperature;BMP_pressure;BME280_temperature;BME280_humidity;BME280_pressure;Samples;Min_cycle;Max_cycle;Signal;HPM_P1;HPM_P2
2023/05/24 04:50:47;;;;;;;;;8.25;7.25;;;;;;;;6372200;22;11378;-74
2023/05/24 04:53:13;;;;;;;;;8.25;7.00;;;;;;;;6372035;22;11443;-76
2023/05/24 04:55:39;;;;;;;;;5.00;5.00;;;;;;;;6373587;22;8725;-75
2023/05/24 04:58:04;;;;;;;;;7.50;7.50;;;;;;;;6373199;22;11445;-75
2023/05/24 05:00:29;;;;;;;;;7.75;6.25;;;;;;;;6372978;22;8755;-76
2023/05/24 05:02:54;;;;;;;;;9.25;8.25;;;;;;;;6373423;22;8763;-74
2023/05/24 05:05:20;;;;;;;;;2.50;2.50;;;;;;;;6373326;22;8787;-76
2023/05/24 05:07:45;;;;;;;;;7.75;5.75;;;;;;;;6373120;22;8775;-76
2023/05/24 05:10:11;;;;;;;;;3.50;3.50;;;;;;;;6373283;22;9520;-76
2023/05/24 05:12:36;;;;;;;;;9.75;7.25;;;;;;;;6373431;22;8728;-74
2023/05/24 05:15:01;;;;;;;;;11.75;9.25;;;;;;;;6374053;22;8755;-75
2023/05/24 05:17:27;;;;;;;;;7.50;4.00;;;;;;;;6374002;22;8778;-74
2023/05/24 05:19:52;;;;;;;;;9.00;6.00;;;;;;;;6375736;22;8852;-73
2023/05/24 05:22:17;;;;;;;;;6.00;6.00;;;;;;;;6375409;22;8797;-74
2023/05/24 05:24:42;;;;;;;;;8.50;4.50;;;;;;;;6374175;22;8744;-77
2023/05/24 05:27:07;;;;;;;;;6.50;5.25;;;;;;;;6374212;22;9855;-75
2023/05/24 05:29:32;;;;;;;;;11.00;7.00;;;;;;;;6375842;22;8759;-73
2023/05/24 05:31:58;;;;;;;;;0.00;0.00;;;;;;;;6377388;22;8782;-75
2023/05/24 05:34:23;;;;;;;;;5.50;4.75;;;;;;;;6376021;22;8848;-74
2023/05/24 05:36:48;;;;;;;;;8.00;5.25;;;;;;;;6375923;22;8751;-79
2023/05/24 05:39:13;;;;;;;;;11.75;9.00;;;;;;;;6373748;22;8763;-75
2023/05/24 05:41:39;;;;;;;;;9.75;8.50;;;;;;;;6373292;22;8752;-74
2023/05/24 05:44:04;;;;;;;;;7.75;7.50;;;;;;;;6374767;22;8863;-77
2023/05/24 05:46:29;;;;;;;;;8.50;7.00;;;;;;;;6375346;22;8782;-78
2023/05/24 05:48:55;;;;;;;;;8.50;6.00;;;;;;;;6373452;22;9532;-77
2023/05/24 05:51:20;;;;;;;;;11.00;9.75;;;;;;;;6375022;22;8761;-77
2023/05/24 05:53:45;;;;;;;;;7.25;6.00;;;;;;;;6375695;22;9504;-77
2023/05/24 05:56:10;;;;;;;;;8.25;8.25;;;;;;;;6374894;22;8751;-77
2023/05/24 05:58:37;;;;;;;;;3.50;3.50;;;;;;;;6347508;22;8743;-78
2023/05/24 06:01:02;;;;;;;;;10.75;9.50;;;;;;;;6375012;22;8744;-77
2023/05/24 06:03:28;;;;;;;;;8.50;6.00;;;;;;;;6375382;22;11466;-77
2023/05/24 06:05:53;;;;;;;;;4.25;4.00;;;;;;;;6376386;22;8747;-78
2023/05/24 06:08:18;;;;;;;;;14.50;10.50;;;;;;;;6375694;22;8791;-78
2023/05/24 06:10:43;;;;;;;;;7.75;4.75;;;;;;;;6375666;22;8744;-77
2023/05/24 06:13:08;;;;;;;;;9.25;6.00;;;;;;;;6347233;22;8778;-77
2023/05/24 06:15:34;;;;;;;;;5.00;3.25;;;;;;;;6375771;22;8864;-77
2023/05/24 06:17:59;;;;;;;;;8.25;8.00;;;;;;;;6376216;22;9512;-78
2023/05/24 06:20:25;;;;;;;;;7.00;7.00;;;;;;;;6347874;22;8739;-78
2023/05/24 06:22:51;;;;;;;;;8.25;6.75;;;;;;;;6377411;22;9452;-79
2023/05/24 06:25:18;;;;;;;;;7.00;7.00;;;;;;;;6375277;22;8790;-78
2023/05/24 06:27:43;;;;;;;;;13.75;10.00;;;;;;;;6375115;22;8810;-77
2023/05/24 06:30:09;;;;;;;;;10.00;9.75;;;;;;;;6374850;22;12074;-77
2023/05/24 06:32:34;;;;;;;;;7.00;6.00;;;;;;;;6375047;22;8740;-77
2023/05/24 06:34:59;;;;;;;;;12.25;8.25;;;;;;;;6375384;22;8744;-77
2023/05/24 06:37:24;;;;;;;;;5.75;5.75;;;;;;;;6346535;22;8784;-77
2023/05/24 06:39:50;;;;;;;;;14.75;10.75;;;;;;;;6375392;22;8740;-78
2023/05/24 06:42:15;;;;;;;;;9.75;5.00;;;;;;;;6375100;22;8860;-75
2023/05/24 06:44:40;;;;;;;;;7.00;3.75;;;;;;;;6374701;22;8844;-77
2023/05/24 06:47:06;;;;;;;;;9.00;5.50;;;;;;;;6374857;22;8850;-78
2023/05/24 06:49:31;;;;;;;;;5.00;5.00;;;;;;;;6374790;22;8760;-78
2023/05/24 06:51:56;;;;;;;;;0.00;0.00;;;;;;;;6376318;22;9518;-79
2023/05/24 06:54:21;;;;;;;;;8.25;6.75;;;;;;;;6376258;22;8816;-75
2023/05/24 06:56:47;;;;;;;;;11.00;7.75;;;;;;;;6375752;22;8748;-83
2023/05/24 06:59:12;;;;;;;;;11.00;9.25;;;;;;;;6376689;22;8747;-84
2023/05/24 07:01:38;;;;;;;;;11.25;11.00;;;;;;;;6378883;22;8856;-87
2023/05/24 07:04:04;;;;;;;;;15.25;7.25;;;;;;;;6380693;22;8712;-89
2023/05/24 07:06:31;;;;;;;;;10.50;6.25;;;;;;;;6377286;22;11544;-88
2023/05/24 07:08:56;;;;;;;;;5.00;5.00;;;;;;;;6347935;22;8845;-87
2023/05/24 07:11:21;;;;;;;;;11.50;10.50;;;;;;;;6346740;22;12061;-81
2023/05/24 07:13:47;;;;;;;;;14.00;11.50;;;;;;;;6347082;22;8798;-76
2023/05/24 07:16:12;;;;;;;;;8.25;6.00;;;;;;;;6374726;22;8860;-79
2023/05/24 07:18:37;;;;;;;;;18.00;17.50;;;;;;;;6374172;22;8764;-78
2023/05/24 07:21:02;;;;;;;;;31.00;25.50;;;;;;;;6375462;22;8766;-77
2023/05/24 07:23:28;;;;;;;;;8.00;5.00;;;;;;;;6375006;22;8787;-78
2023/05/24 07:25:53;;;;;;;;;5.00;5.00;;;;;;;;6346341;22;8755;-79
2023/05/24 07:28:19;;;;;;;;;9.50;8.75;;;;;;;;6370533;22;8893;-79
2023/05/24 07:30:44;;;;;;;;;9.75;7.00;;;;;;;;6374050;22;8747;-89
2023/05/24 07:33:10;;;;;;;;;14.25;8.75;;;;;;;;6376169;22;8748;-83
2023/05/24 07:35:35;;;;;;;;;9.50;7.75;;;;;;;;6374931;22;8732;-78
2023/05/24 07:38:00;;;;;;;;;3.50;3.25;;;;;;;;6375603;22;8735;-82
2023/05/24 07:40:25;;;;;;;;;9.25;4.00;;;;;;;;6347135;22;8775;-76
2023/05/24 07:42:50;;;;;;;;;11.50;5.75;;;;;;;;6374282;22;8755;-80
2023/05/24 07:45:16;;;;;;;;;6.25;4.00;;;;;;;;6346419;22;8779;-84
2023/05/24 07:47:41;;;;;;;;;6.50;5.25;;;;;;;;6374230;22;8822;-84
2023/05/24 07:50:07;;;;;;;;;11.00;7.25;;;;;;;;6374511;22;8759;-82
2023/05/24 07:52:32;;;;;;;;;16.00;10.00;;;;;;;;6374575;22;8755;-80
2023/05/24 07:54:57;;;;;;;;;4.50;3.75;;;;;;;;6374397;22;8771;-79
2023/05/24 07:57:22;;;;;;;;;6.75;4.75;;;;;;;;6347572;22;8771;-81
2023/05/24 07:59:48;;;;;;;;;10.00;5.25;;;;;;;;6376478;22;8759;-82
2023/05/24 08:02:14;;;;;;;;;3.50;3.25;;;;;;;;6376237;22;8752;-81
2023/05/24 08:04:39;;;;;;;;;8.75;7.00;;;;;;;;6376453;22;8789;-80
2023/05/24 08:07:05;;;;;;;;;6.75;5.75;;;;;;;;6376040;22;11330;-80
2023/05/24 08:09:34;;;;;;;;;12.00;7.25;;;;;;;;6376008;22;8772;-81
2023/05/24 08:12:00;;;;;;;;;6.00;4.25;;;;;;;;6375837;22;8789;-76
2023/05/24 08:14:25;;;;;;;;;3.50;3.50;;;;;;;;6376262;22;11309;-79
2023/05/24 08:16:50;;;;;;;;;7.00;7.00;;;;;;;;6377091;22;8748;-82
2023/05/24 08:19:15;;;;;;;;;7.75;6.00;;;;;;;;6375323;22;8755;-75
2023/05/24 08:21:41;;;;;;;;;5.25;4.75;;;;;;;;6375666;22;8956;-75
2023/05/24 08:24:07;;;;;;;;;6.25;4.75;;;;;;;;6376313;22;8762;-75
2023/05/24 08:26:32;;;;;;;;;5.75;5.00;;;;;;;;6375631;22;9279;-74
2023/05/24 08:28:57;;;;;;;;;5.50;4.00;;;;;;;;6376147;22;8783;-75
2023/05/24 08:31:22;;;;;;;;;2.00;1.50;;;;;;;;6376170;22;8752;-75
2023/05/24 08:33:49;;;;;;;;;4.75;3.75;;;;;;;;6375660;22;9983;-75
2023/05/24 08:36:15;;;;;;;;;3.50;3.50;;;;;;;;6375983;22;8740;-73
2023/05/24 08:38:40;;;;;;;;;8.75;6.25;;;;;;;;6375689;22;11350;-73
2023/05/24 08:41:07;;;;;;;;;10.25;6.75;;;;;;;;6375792;22;8763;-74
2023/05/24 08:43:32;;;;;;;;;4.00;3.25;;;;;;;;6348278;22;8744;-75
2023/05/24 08:45:58;;;;;;;;;5.00;4.50;;;;;;;;6376459;22;11336;-76
2023/05/24 08:48:24;;;;;;;;;7.00;5.00;;;;;;;;6375998;22;8763;-74
2023/05/24 08:50:49;;;;;;;;;5.25;3.50;;;;;;;;6375738;22;8744;-75
2023/05/24 08:53:14;;;;;;;;;7.50;4.75;;;;;;;;6375740;22;10980;-77
2023/05/24 08:55:42;;;;;;;;;4.00;2.50;;;;;;;;6375410;22;8760;-76
2023/05/24 08:58:07;;;;;;;;;3.50;2.75;;;;;;;;6376100;22;8762;-75
2023/05/24 09:00:32;;;;;;;;;3.00;3.00;;;;;;;;6375946;22;11327;-74
2023/05/24 09:02:58;;;;;;;;;9.50;4.25;;;;;;;;6376086;22;8776;-75
2023/05/24 09:05:24;;;;;;;;;3.75;3.50;;;;;;;;6375788;22;8811;-74
2023/05/24 09:07:50;;;;;;;;;7.00;5.00;;;;;;;;6375584;22;11348;-75
2023/05/24 09:10:18;;;;;;;;;5.75;4.50;;;;;;;;6376021;22;8751;-76
2023/05/24 09:12:44;;;;;;;;;3.25;2.25;;;;;;;;6375989;22;8728;-76
2023/05/24 09:15:10;;;;;;;;;3.75;3.00;;;;;;;;6374971;22;11416;-75
2023/05/24 09:17:36;;;;;;;;;4.25;3.75;;;;;;;;6375280;22;11113;-75
2023/05/24 09:20:05;;;;;;;;;2.00;2.00;;;;;;;;6347773;22;8783;-74
2023/05/24 09:22:32;;;;;;;;;3.25;2.75;;;;;;;;6376781;22;11125;-75
2023/05/24 09:25:00;;;;;;;;;2.50;2.00;;;;;;;;6376073;22;11144;-74
2023/05/24 09:27:26;;;;;;;;;4.00;2.00;;;;;;;;6376011;22;11004;-75
2023/05/24 09:29:52;;;;;;;;;2.00;2.00;;;;;;;;6374680;22;11169;-75
2023/05/24 09:32:18;;;;;;;;;2.00;2.00;;;;;;;;6375168;22;8755;-75
2023/05/24 09:34:46;;;;;;;;;6.75;4.00;;;;;;;;6347045;22;11363;-76
2023/05/24 09:37:15;;;;;;;;;3.25;3.00;;;;;;;;6374613;22;10939;-76
2023/05/24 09:39:41;;;;;;;;;2.00;2.00;;;;;;;;6374368;22;10864;-76
2023/05/24 09:42:06;;;;;;;;;3.50;3.00;;;;;;;;6374770;22;10790;-76
2023/05/24 09:44:31;;;;;;;;;3.00;3.00;;;;;;;;6374926;22;8882;-76
2023/05/24 09:47:01;;;;;;;;;1.75;0.50;;;;;;;;6375910;22;8751;-75
2023/05/24 09:49:26;;;;;;;;;4.75;3.00;;;;;;;;6374590;22;9916;-76
2023/05/24 09:51:51;;;;;;;;;2.75;0.50;;;;;;;;6375290;22;10967;-77
2023/05/24 09:54:17;;;;;;;;;3.00;3.00;;;;;;;;6376190;22;8948;-76
2023/05/24 09:56:45;;;;;;;;;0.00;0.00;;;;;;;;6376856;22;8748;-77
2023/05/24 09:59:10;;;;;;;;;6.50;3.00;;;;;;;;6376115;22;8708;-77
2023/05/24 10:01:36;;;;;;;;;4.00;3.00;;;;;;;;6376140;22;10983;-76
2023/05/24 10:04:01;;;;;;;;;4.75;2.50;;;;;;;;6376672;22;8740;-77
2023/05/24 10:06:27;;;;;;;;;4.50;2.75;;;;;;;;6376494;22;8769;-78
2023/05/24 10:08:54;;;;;;;;;2.75;2.75;;;;;;;;6375823;22;8740;-77
2023/05/24 10:11:20;;;;;;;;;1.25;1.25;;;;;;;;6375772;22;10948;-77
2023/05/24 10:13:46;;;;;;;;;1.50;1.50;;;;;;;;6375597;22;10863;-77
2023/05/24 10:16:11;;;;;;;;;4.25;2.50;;;;;;;;6375663;22;8839;-78
2023/05/24 10:18:37;;;;;;;;;6.00;2.25;;;;;;;;6374427;22;10975;-77
2023/05/24 10:21:06;;;;;;;;;6.00;2.00;;;;;;;;6375344;22;8795;-77
2023/05/24 10:23:32;;;;;;;;;2.50;2.00;;;;;;;;6375190;22;8708;-77
2023/05/24 10:26:08;;;;;;;;;1.00;1.00;;;;;;;;6375336;22;10713;-77
2023/05/24 10:28:35;;;;;;;;;2.00;2.00;;;;;;;;6375197;22;10703;-77
2023/05/24 10:31:03;;;;;;;;;2.75;2.25;;;;;;;;6375585;22;10868;-77
2023/05/24 10:33:30;;;;;;;;;0.00;0.00;;;;;;;;6375226;22;11066;-79
2023/05/24 10:35:55;;;;;;;;;5.00;3.00;;;;;;;;6375758;22;10754;-78
2023/05/24 10:38:21;;;;;;;;;8.00;5.00;;;;;;;;6346578;22;11009;-78
2023/05/24 10:40:46;;;;;;;;;3.00;3.00;;;;;;;;6376031;22;8740;-77
2023/05/24 10:43:12;;;;;;;;;1.00;1.00;;;;;;;;6375535;22;11907;-78
2023/05/24 10:45:40;;;;;;;;;2.00;1.75;;;;;;;;6375758;22;8775;-76
2023/05/24 10:48:12;;;;;;;;;3.50;2.25;;;;;;;;6375040;22;8736;-78
2023/05/24 10:50:37;;;;;;;;;4.00;2.50;;;;;;;;6375228;22;10817;-78
2023/05/24 10:53:15;;;;;;;;;4.00;4.00;;;;;;;;6376125;22;10806;-77
2023/05/24 10:55:51;;;;;;;;;3.75;3.00;;;;;;;;6374440;22;8716;-76
2023/05/24 10:58:16;;;;;;;;;1.25;1.25;;;;;;;;6374651;22;11103;-77
2023/05/24 11:00:43;;;;;;;;;4.00;2.50;;;;;;;;6375591;22;10764;-77
2023/05/24 11:03:09;;;;;;;;;2.75;2.75;;;;;;;;6375412;22;8720;-77
2023/05/24 11:05:35;;;;;;;;;6.25;5.50;;;;;;;;6375611;22;10683;-77
2023/05/24 11:08:02;;;;;;;;;2.75;1.75;;;;;;;;6375408;22;11303;-78
2023/05/24 11:10:31;;;;;;;;;1.75;0.50;;;;;;;;6375072;22;11324;-79
2023/05/24 11:12:58;;;;;;;;;3.00;3.00;;;;;;;;6375068;22;10898;-79
2023/05/24 11:15:24;;;;;;;;;2.75;2.50;;;;;;;;6374634;22;10903;-88
2023/05/24 11:18:05;;;;;;;;;2.00;2.00;;;;;;;;6375008;22;10941;-79
2023/05/24 11:20:30;;;;;;;;;6.50;4.75;;;;;;;;6375377;22;10795;-81
2023/05/24 11:22:56;;;;;;;;;4.00;3.00;;;;;;;;6375789;22;10908;-79
2023/05/24 11:25:21;;;;;;;;;4.50;3.75;;;;;;;;6374954;22;8771;-75
2023/05/24 11:27:46;;;;;;;;;4.00;4.00;;;;;;;;6374901;22;8847;-74
2023/05/24 11:30:12;;;;;;;;;4.50;3.25;;;;;;;;6375224;22;8760;-75
2023/05/24 11:32:41;;;;;;;;;3.00;2.00;;;;;;;;6376152;22;8748;-76
2023/05/24 11:35:09;;;;;;;;;4.75;4.50;;;;;;;;6375155;22;8729;-77
2023/05/24 11:37:35;;;;;;;;;3.50;3.50;;;;;;;;6375852;22;11050;-77
2023/05/24 11:40:02;;;;;;;;;2.75;2.75;;;;;;;;6375704;22;10969;-77
2023/05/24 11:42:27;;;;;;;;;4.75;3.75;;;;;;;;6376173;22;8720;-74
2023/05/24 11:44:52;;;;;;;;;3.25;2.00;;;;;;;;6376173;22;11657;-76
2023/05/24 11:47:19;;;;;;;;;4.00;3.00;;;;;;;;6376275;22;9916;-76
2023/05/24 11:49:48;;;;;;;;;2.50;2.00;;;;;;;;6375247;22;8847;-78
2023/05/24 11:52:13;;;;;;;;;2.50;2.50;;;;;;;;6347633;22;12213;-76
2023/05/24 11:54:38;;;;;;;;;4.00;4.00;;;;;;;;6375995;22;10996;-74
2023/05/24 11:57:04;;;;;;;;;3.00;3.00;;;;;;;;6376750;22;8748;-75
2023/05/24 11:59:29;;;;;;;;;4.00;3.00;;;;;;;;6376195;22;8747;-82
2023/05/24 12:01:59;;;;;;;;;2.50;2.00;;;;;;;;6375667;22;8736;-79
2023/05/24 12:04:24;;;;;;;;;3.25;3.00;;;;;;;;6375865;22;8713;-74
2023/05/24 12:06:50;;;;;;;;;2.00;2.00;;;;;;;;6375854;22;11022;-73
2023/05/24 12:09:16;;;;;;;;;5.00;3.00;;;;;;;;6376088;22;8772;-73
2023/05/24 12:11:43;;;;;;;;;3.50;2.00;;;;;;;;6375761;22;8758;-72
2023/05/24 12:14:17;;;;;;;;;2.25;1.50;;;;;;;;6346815;22;12163;-72
2023/05/24 12:16:44;;;;;;;;;3.75;2.50;;;;;;;;6375915;22;10957;-70
2023/05/24 12:19:17;;;;;;;;;5.50;4.25;;;;;;;;6376078;22;10858;-73
2023/05/24 12:21:42;;;;;;;;;3.25;2.75;;;;;;;;6375726;22;10884;-71
2023/05/24 12:24:08;;;;;;;;;4.50;4.50;;;;;;;;6376297;22;10802;-78
2023/05/24 12:26:39;;;;;;;;;7.25;3.00;;;;;;;;6376097;22;8724;-73
2023/05/24 12:29:05;;;;;;;;;1.00;1.00;;;;;;;;6375774;22;10921;-73
2023/05/24 12:31:31;;;;;;;;;3.00;2.00;;;;;;;;6375611;22;10884;-79
2023/05/24 12:33:56;;;;;;;;;7.75;7.00;;;;;;;;6347359;22;11020;-74
2023/05/24 12:36:21;;;;;;;;;0.00;0.00;;;;;;;;6347088;22;9476;-76
2023/05/24 12:38:47;;;;;;;;;1.00;1.00;;;;;;;;6376331;22;8825;-76
2023/05/24 12:41:12;;;;;;;;;2.00;2.00;;;;;;;;6346502;22;8763;-76
2023/05/24 12:43:37;;;;;;;;;4.00;4.00;;;;;;;;6375952;22;8752;-75
2023/05/24 12:46:03;;;;;;;;;3.75;3.00;;;;;;;;6375726;22;8755;-79
2023/05/24 12:48:28;;;;;;;;;4.00;3.00;;;;;;;;6375558;22;8776;-75
2023/05/24 12:50:53;;;;;;;;;3.00;3.00;;;;;;;;6375717;22;8755;-76
2023/05/24 12:53:22;;;;;;;;;4.50;4.50;;;;;;;;6376006;22;8775;-77
2023/05/24 12:55:49;;;;;;;;;5.00;3.25;;;;;;;;6347412;22;8740;-75
2023/05/24 12:58:16;;;;;;;;;3.00;2.50;;;;;;;;6375657;22;11181;-75
2023/05/24 13:00:43;;;;;;;;;5.00;4.00;;;;;;;;6375881;22;10936;-75
2023/05/24 13:03:08;;;;;;;;;3.50;3.25;;;;;;;;6375501;22;11521;-73
2023/05/24 13:05:33;;;;;;;;;5.75;5.00;;;;;;;;6375217;22;10827;-73
2023/05/24 13:07:59;;;;;;;;;4.00;4.00;;;;;;;;6375890;22;8768;-74
2023/05/24 13:10:24;;;;;;;;;4.00;3.00;;;;;;;;6347191;22;8866;-77
2023/05/24 13:12:49;;;;;;;;;4.00;4.00;;;;;;;;6376223;22;8736;-75
2023/05/24 13:15:14;;;;;;;;;5.00;4.00;;;;;;;;6375783;22;8756;-73
2023/05/24 13:17:40;;;;;;;;;6.00;4.00;;;;;;;;6375951;22;8760;-75
2023/05/24 13:20:06;;;;;;;;;6.25;4.00;;;;;;;;6375732;22;8747;-73
2023/05/24 13:22:34;;;;;;;;;2.00;2.00;;;;;;;;6347009;22;8763;-75
2023/05/24 13:25:00;;;;;;;;;4.50;3.25;;;;;;;;6375165;22;8734;-76
2023/05/24 13:27:26;;;;;;;;;3.00;2.50;;;;;;;;6375751;22;10625;-75
2023/05/24 13:29:51;;;;;;;;;4.75;4.25;;;;;;;;6347177;22;10512;-78
2023/05/24 13:32:17;;;;;;;;;4.75;3.50;;;;;;;;6375646;22;9570;-76
2023/05/24 13:34:43;;;;;;;;;4.75;4.00;;;;;;;;6375496;22;8756;-74
2023/05/24 13:37:09;;;;;;;;;4.00;3.00;;;;;;;;6375677;22;8763;-75
2023/05/24 13:39:35;;;;;;;;;2.50;2.50;;;;;;;;6374905;22;10634;-74
2023/05/24 13:42:01;;;;;;;;;4.00;4.00;;;;;;;;6375603;22;8833;-73
2023/05/24 13:44:26;;;;;;;;;4.25;3.25;;;;;;;;6375347;22;10792;-74
2023/05/24 13:46:52;;;;;;;;;3.75;3.75;;;;;;;;6374952;22;8790;-75
2023/05/24 13:49:18;;;;;;;;;3.00;3.00;;;;;;;;6374907;22;8760;-72
2023/05/24 13:51:43;;;;;;;;;3.75;3.75;;;;;;;;6375652;22;10812;-72
2023/05/24 13:54:08;;;;;;;;;5.75;4.50;;;;;;;;6374832;22;8848;-73
2023/05/24 13:56:33;;;;;;;;;5.50;4.00;;;;;;;;6347044;22;8776;-73
2023/05/24 13:58:59;;;;;;;;;2.75;2.00;;;;;;;;6375961;22;8755;-74
2023/05/24 14:01:25;;;;;;;;;5.75;4.00;;;;;;;;6375605;22;8759;-74
2023/05/24 14:03:51;;;;;;;;;3.50;3.50;;;;;;;;6375141;22;10873;-74
2023/05/24 14:06:16;;;;;;;;;4.25;3.75;;;;;;;;6375456;22;8771;-74
2023/05/24 14:08:41;;;;;;;;;2.75;2.50;;;;;;;;6375420;22;8756;-76
2023/05/24 14:11:06;;;;;;;;;4.25;4.25;;;;;;;;6375654;22;8867;-75
2023/05/24 14:13:32;;;;;;;;;5.00;5.00;;;;;;;;6375436;22;8763;-77
2023/05/24 14:15:57;;;;;;;;;3.75;3.25;;;;;;;;6375152;22;8735;-77
2023/05/24 14:18:22;;;;;;;;;4.25;4.25;;;;;;;;6375400;22;8774;-75
2023/05/24 14:20:47;;;;;;;;;3.00;3.00;;;;;;;;6375325;22;9476;-74
2023/05/24 14:23:12;;;;;;;;;6.00;4.00;;;;;;;;6374972;22;8760;-75
2023/05/24 14:25:38;;;;;;;;;3.50;3.50;;;;;;;;6375260;22;8759;-74
2023/05/24 14:28:03;;;;;;;;;4.50;2.25;;;;;;;;6375297;22;8851;-77
2023/05/24 14:30:30;;;;;;;;;3.50;3.00;;;;;;;;6375191;22;8787;-78
2023/05/24 14:32:56;;;;;;;;;3.50;3.50;;;;;;;;6375483;22;8762;-76
2023/05/24 14:35:21;;;;;;;;;5.25;3.00;;;;;;;;6375513;22;10665;-80
2023/05/24 14:37:46;;;;;;;;;3.75;3.75;;;;;;;;6375575;22;8839;-75
2023/05/24 14:40:12;;;;;;;;;2.75;2.75;;;;;;;;6346387;22;8767;-74
2023/05/24 14:42:37;;;;;;;;;4.25;4.25;;;;;;;;6375500;22;8752;-74
2023/05/24 14:45:03;;;;;;;;;6.50;3.25;;;;;;;;6375531;22;9469;-74
2023/05/24 14:47:28;;;;;;;;;3.50;3.25;;;;;;;;6375071;22;8744;-74
2023/05/24 14:49:53;;;;;;;;;3.00;3.00;;;;;;;;6374800;22;8772;-73
2023/05/24 14:52:18;;;;;;;;;6.00;6.00;;;;;;;;6346957;22;8848;-74
2023/05/24 14:54:44;;;;;;;;;2.75;2.75;;;;;;;;6375457;22;8873;-75
2023/05/24 14:57:09;;;;;;;;;6.75;6.00;;;;;;;;6375614;22;8764;-75
2023/05/24 14:59:35;;;;;;;;;6.50;4.00;;;;;;;;6374834;22;9867;-76
2023/05/24 15:02:00;;;;;;;;;6.00;4.00;;;;;;;;6375253;22;8768;-76
2023/05/24 15:04:26;;;;;;;;;6.25;6.25;;;;;;;;6375115;22;8747;-76
2023/05/24 15:06:51;;;;;;;;;5.50;5.50;;;;;;;;6347165;22;9464;-75
2023/05/24 15:09:16;;;;;;;;;9.00;6.25;;;;;;;;6375380;22;8771;-75
2023/05/24 15:11:42;;;;;;;;;6.00;5.00;;;;;;;;6375183;22;8806;-76
2023/05/24 15:14:07;;;;;;;;;5.00;5.00;;;;;;;;6346133;22;8775;-77
2023/05/24 15:16:32;;;;;;;;;7.50;5.75;;;;;;;;6375480;22;8852;-76
2023/05/24 15:18:57;;;;;;;;;4.25;4.25;;;;;;;;6375375;22;8751;-77
2023/05/24 15:21:22;;;;;;;;;5.25;4.25;;;;;;;;6374525;22;8763;-73
2023/05/24 15:23:48;;;;;;;;;5.25;5.25;;;;;;;;6374770;22;8740;-75
2023/05/24 15:26:13;;;;;;;;;7.50;7.50;;;;;;;;6374569;22;8740;-75
2023/05/24 15:28:38;;;;;;;;;5.00;5.00;;;;;;;;6374317;22;8802;-73
2023/05/24 15:31:03;;;;;;;;;6.00;4.75;;;;;;;;6374747;22;8882;-75
2023/05/24 15:33:29;;;;;;;;;3.75;3.75;;;;;;;;6375166;22;8780;-73
2023/05/24 15:35:54;;;;;;;;;3.00;3.00;;;;;;;;6375020;22;8728;-75
2023/05/24 15:38:19;;;;;;;;;3.50;3.50;;;;;;;;6375163;22;8790;-81
2023/05/24 15:40:45;;;;;;;;;7.00;5.50;;;;;;;;6375176;22;8806;-84
2023/05/24 15:43:11;;;;;;;;;7.50;6.00;;;;;;;;6374507;22;8776;-82
2023/05/24 15:45:36;;;;;;;;;3.75;3.75;;;;;;;;6374957;22;8817;-84
2023/05/24 15:48:04;;;;;;;;;6.25;6.25;;;;;;;;6374919;22;8755;-80
2023/05/24 15:50:31;;;;;;;;;5.75;5.00;;;;;;;;6374325;22;8744;-76
2023/05/24 15:52:56;;;;;;;;;8.00;6.50;;;;;;;;6374558;22;11226;-77
2023/05/24 15:55:21;;;;;;;;;5.75;4.75;;;;;;;;6374852;22;10443;-78
2023/05/24 15:57:46;;;;;;;;;5.50;5.00;;;;;;;;6375269;22;8740;-84
2023/05/24 16:00:12;;;;;;;;;3.25;3.00;;;;;;;;6375295;22;8776;-76
2023/05/24 16:02:37;;;;;;;;;2.00;2.00;;;;;;;;6375668;22;8748;-73
2023/05/24 16:05:02;;;;;;;;;6.00;5.00;;;;;;;;6376547;22;8791;-83
2023/05/24 16:07:27;;;;;;;;;2.25;0.75;;;;;;;;6375867;22;8824;-79
2023/05/24 16:09:53;;;;;;;;;4.50;4.50;;;;;;;;6376130;22;8771;-80
2023/05/24 16:12:18;;;;;;;;;5.00;5.00;;;;;;;;6375804;22;8752;-75
2023/05/24 16:14:43;;;;;;;;;5.75;4.00;;;;;;;;6375811;22;8744;-81
2023/05/24 16:17:09;;;;;;;;;5.75;5.00;;;;;;;;6376279;22;8756;-78
2023/05/24 16:19:34;;;;;;;;;8.50;8.00;;;;;;;;6375623;22;8812;-78
2023/05/24 16:21:59;;;;;;;;;7.00;6.25;;;;;;;;6376268;22;8910;-78
2023/05/24 16:24:25;;;;;;;;;4.50;4.50;;;;;;;;6376270;22;8743;-77
2023/05/24 16:26:50;;;;;;;;;1.75;1.75;;;;;;;;6376157;22;8771;-77
2023/05/24 16:29:16;;;;;;;;;9.00;6.50;;;;;;;;6376148;22;11389;-81
2023/05/24 16:31:42;;;;;;;;;6.50;4.50;;;;;;;;6376071;22;8735;-77
2023/05/24 16:34:07;;;;;;;;;5.75;4.75;;;;;;;;6376222;22;8840;-75
2023/05/24 16:36:32;;;;;;;;;5.00;5.00;;;;;;;;6375618;22;8837;-78
2023/05/24 16:38:57;;;;;;;;;5.75;5.75;;;;;;;;6375640;22;8768;-75
2023/05/24 16:41:23;;;;;;;;;6.75;4.75;;;;;;;;6375398;22;8821;-75
2023/05/24 16:43:48;;;;;;;;;4.50;4.50;;;;;;;;6375968;22;8744;-76
2023/05/24 16:46:13;;;;;;;;;6.25;5.00;;;;;;;;6375701;22;8752;-77
2023/05/24 16:48:38;;;;;;;;;11.50;7.50;;;;;;;;6376100;22;8788;-76
2023/05/24 16:51:04;;;;;;;;;5.00;5.00;;;;;;;;6375559;22;8774;-76
2023/05/24 16:53:29;;;;;;;;;5.50;3.50;;;;;;;;6376036;22;8728;-77
2023/05/24 16:55:55;;;;;;;;;7.75;6.25;;;;;;;;6375777;22;8836;-80
2023/05/24 16:58:26;;;;;;;;;6.50;6.50;;;;;;;;6376014;22;8728;-76
2023/05/24 17:00:53;;;;;;;;;8.00;6.50;;;;;;;;6375638;22;10588;-77
2023/05/24 17:03:20;;;;;;;;;6.00;4.00;;;;;;;;6375795;22;10707;-77
2023/05/24 17:05:45;;;;;;;;;4.00;4.00;;;;;;;;6375585;22;10589;-77
2023/05/24 17:08:11;;;;;;;;;6.75;6.00;;;;;;;;6375783;22;11277;-76
2023/05/24 17:10:36;;;;;;;;;7.25;4.00;;;;;;;;6376249;22;8771;-75
2023/05/24 17:13:01;;;;;;;;;6.00;5.00;;;;;;;;6376156;22;8772;-77
2023/05/24 17:15:26;;;;;;;;;8.25;7.25;;;;;;;;6375918;22;8773;-77
2023/05/24 17:17:53;;;;;;;;;7.00;6.00;;;;;;;;6375544;22;8855;-77
2023/05/24 17:20:18;;;;;;;;;5.25;5.25;;;;;;;;6374970;22;9516;-77
2023/05/24 17:22:43;;;;;;;;;6.75;6.75;;;;;;;;6375381;22;10616;-76
2023/05/24 17:25:09;;;;;;;;;6.75;6.75;;;;;;;;6376457;22;8732;-77
2023/05/24 17:27:34;;;;;;;;;6.75;5.75;;;;;;;;6375820;22;8747;-82
2023/05/24 17:29:59;;;;;;;;;6.75;5.75;;;;;;;;6375919;22;8779;-77
2023/05/24 17:32:25;;;;;;;;;9.25;6.25;;;;;;;;6376148;22;8838;-76
2023/05/24 17:34:50;;;;;;;;;6.75;5.50;;;;;;;;6375805;22;8760;-79
2023/05/24 17:37:15;;;;;;;;;5.00;5.00;;;;;;;;6375796;22;8778;-81
2023/05/24 17:39:40;;;;;;;;;7.50;5.50;;;;;;;;6376219;22;8767;-77
2023/05/24 17:42:06;;;;;;;;;6.50;5.25;;;;;;;;6375421;22;8740;-75
2023/05/24 17:44:31;;;;;;;;;8.00;5.75;;;;;;;;6375666;22;8744;-74
2023/05/24 17:47:00;;;;;;;;;6.75;5.00;;;;;;;;6375943;22;8748;-74
2023/05/24 17:49:26;;;;;;;;;7.75;6.75;;;;;;;;6375490;22;8755;-74
2023/05/24 17:51:51;;;;;;;;;5.00;5.00;;;;;;;;6375793;22;10818;-76
2023/05/24 17:54:16;;;;;;;;;8.75;5.25;;;;;;;;6376042;22;8747;-76
2023/05/24 17:56:41;;;;;;;;;10.25;9.00;;;;;;;;6375783;22;8747;-77
2023/05/24 17:59:08;;;;;;;;;5.50;5.50;;;;;;;;6375956;22;8755;-75
2023/05/24 18:01:33;;;;;;;;;5.00;5.00;;;;;;;;6375666;22;8728;-76
2023/05/24 18:03:59;;;;;;;;;5.50;5.50;;;;;;;;6375970;22;10894;-77
2023/05/24 18:06:24;;;;;;;;;8.75;8.50;;;;;;;;6375765;22;8854;-73
2023/05/24 18:08:49;;;;;;;;;8.50;8.50;;;;;;;;6375091;22;8797;-76
2023/05/24 18:11:15;;;;;;;;;6.00;5.00;;;;;;;;6375956;22;8728;-76
2023/05/24 18:13:41;;;;;;;;;7.00;5.50;;;;;;;;6375544;22;8759;-75
2023/05/24 18:16:07;;;;;;;;;6.75;5.25;;;;;;;;6375429;22;8816;-74
2023/05/24 18:18:33;;;;;;;;;7.25;7.25;;;;;;;;6375267;22;10902;-75
2023/05/24 18:20:58;;;;;;;;;8.25;7.75;;;;;;;;6375224;22;8882;-77
2023/05/24 18:23:23;;;;;;;;;11.50;10.75;;;;;;;;6375453;22;8818;-75
2023/05/24 18:25:48;;;;;;;;;7.25;5.75;;;;;;;;6375539;22;8759;-75
2023/05/24 18:28:13;;;;;;;;;7.75;5.00;;;;;;;;6375715;22;8748;-75
2023/05/24 18:30:40;;;;;;;;;9.50;7.00;;;;;;;;6346906;22;8908;-75
2023/05/24 18:33:05;;;;;;;;;7.50;6.75;;;;;;;;6375291;22;8799;-75
2023/05/24 18:35:30;;;;;;;;;9.75;7.00;;;;;;;;6375231;22;11128;-75
2023/05/24 18:37:56;;;;;;;;;8.50;8.50;;;;;;;;6375278;22;8743;-75
2023/05/24 18:40:22;;;;;;;;;9.50;6.00;;;;;;;;6374238;22;8762;-75
2023/05/24 18:42:47;;;;;;;;;8.75;7.00;;;;;;;;6346993;22;8721;-74
2023/05/24 18:45:12;;;;;;;;;7.50;6.00;;;;;;;;6375321;22;11008;-73
2023/05/24 18:47:38;;;;;;;;;6.00;6.00;;;;;;;;6374992;22;8748;-74
2023/05/24 18:50:03;;;;;;;;;10.25;9.75;;;;;;;;6374250;22;8783;-73
2023/05/24 18:52:28;;;;;;;;;5.50;4.25;;;;;;;;6375215;22;8735;-73
2023/05/24 18:54:56;;;;;;;;;7.75;7.75;;;;;;;;6375779;22;8756;-73
2023/05/24 18:57:22;;;;;;;;;8.00;7.00;;;;;;;;6374963;22;8700;-73
2023/05/24 18:59:47;;;;;;;;;7.75;7.00;;;;;;;;6374498;22;11792;-74
2023/05/24 19:02:12;;;;;;;;;10.00;8.75;;;;;;;;6374419;22;8849;-72
2023/05/24 19:04:37;;;;;;;;;6.00;6.00;;;;;;;;6374380;22;8731;-71
2023/05/24 19:07:03;;;;;;;;;10.25;9.25;;;;;;;;6342786;22;8794;-73
2023/05/24 19:09:28;;;;;;;;;7.00;6.00;;;;;;;;6329201;22;8763;-72
2023/05/24 19:11:55;;;;;;;;;7.00;7.00;;;;;;;;6358666;22;8736;-72
2023/05/24 19:14:20;;;;;;;;;8.75;7.00;;;;;;;;6366965;22;8732;-73
2023/05/24 19:16:46;;;;;;;;;7.75;7.00;;;;;;;;6366942;22;11043;-72
2023/05/24 19:19:11;;;;;;;;;7.50;6.00;;;;;;;;6367830;22;8740;-72
2023/05/24 19:21:36;;;;;;;;;7.50;7.50;;;;;;;;6367027;22;8858;-72
2023/05/24 19:24:02;;;;;;;;;8.75;8.00;;;;;;;;6366229;22;9554;-71
2023/05/24 19:26:27;;;;;;;;;8.75;6.75;;;;;;;;6340104;22;8756;-72
2023/05/24 19:28:52;;;;;;;;;7.75;7.75;;;;;;;;6366388;22;8911;-73
2023/05/24 19:31:18;;;;;;;;;6.50;6.00;;;;;;;;6368363;22;8756;-72
2023/05/24 19:33:48;;;;;;;;;7.50;7.50;;;;;;;;6366396;22;8755;-72